createdAt,value
2022-08-21T00:00:53.000Z,21.63
2022-08-21T00:01:53.000Z,21.63
2022-08-21T00:03:02.000Z,21.63
2022-08-21T00:03:54.000Z,21.61
2022-08-21T00:04:53.000Z,21.60
2022-08-21T00:05:52.000Z,21.60
2022-08-21T00:06:52.000Z,21.60
2022-08-21T00:07:53.000Z,21.58
2022-08-21T00:08:52.000Z,21.60
2022-08-21T00:09:53.000Z,21.61
2022-08-21T00:10:52.000Z,21.57
2022-08-21T00:11:52.000Z,21.57
2022-08-21T00:12:53.000Z,21.57
2022-08-21T00:13:53.000Z,21.54
2022-08-21T00:14:53.000Z,21.50
2022-08-21T00:15:52.000Z,21.49
2022-08-21T00:16:53.000Z,21.46
2022-08-21T00:17:54.000Z,21.43
2022-08-21T00:18:53.000Z,21.43
2022-08-21T00:19:52.000Z,21.40
2022-08-21T00:20:53.000Z,21.39
2022-08-21T00:21:54.000Z,21.36
2022-08-21T00:22:53.000Z,21.32
2022-08-21T00:23:53.000Z,21.32
2022-08-21T00:24:53.000Z,21.30
2022-08-21T00:25:52.000Z,21.29
2022-08-21T00:26:53.000Z,21.26
2022-08-21T00:27:53.000Z,21.25
2022-08-21T00:28:53.000Z,21.25
2022-08-21T00:29:53.000Z,21.23
2022-08-21T00:30:53.000Z,21.22
2022-08-21T00:31:53.000Z,21.22
2022-08-21T00:32:55.000Z,21.22
2022-08-21T00:33:52.000Z,21.25
2022-08-21T00:34:53.000Z,21.20
2022-08-21T00:35:53.000Z,21.19
2022-08-21T00:36:53.000Z,21.16
2022-08-21T00:37:53.000Z,21.19
2022-08-21T00:38:53.000Z,21.20
2022-08-21T00:39:53.000Z,21.20
2022-08-21T00:40:58.000Z,21.17
2022-08-21T00:41:53.000Z,21.15
2022-08-21T00:42:53.000Z,21.13
2022-08-21T00:43:53.000Z,21.15
2022-08-21T00:44:53.000Z,21.15
2022-08-21T00:45:54.000Z,21.15
2022-08-21T00:46:53.000Z,21.15
2022-08-21T00:47:55.000Z,21.13
2022-08-21T00:48:53.000Z,21.13
2022-08-21T00:49:53.000Z,21.10
2022-08-21T00:51:03.000Z,21.12
2022-08-21T00:51:56.000Z,21.10
2022-08-21T00:52:53.000Z,21.06
2022-08-21T00:53:57.000Z,21.05
2022-08-21T00:54:54.000Z,21.03
2022-08-21T00:55:55.000Z,21.02
2022-08-21T00:56:58.000Z,20.98
2022-08-21T00:57:55.000Z,20.95
2022-08-21T00:58:55.000Z,20.91
2022-08-21T00:59:56.000Z,20.92
2022-08-21T01:00:53.000Z,20.91
2022-08-21T01:01:53.000Z,20.84
2022-08-21T01:02:53.000Z,20.85
2022-08-21T01:03:53.000Z,20.85
2022-08-21T01:04:53.000Z,20.84
2022-08-21T01:05:53.000Z,20.82
2022-08-21T01:06:54.000Z,20.79
2022-08-21T01:07:55.000Z,20.76
2022-08-21T01:08:53.000Z,20.75
2022-08-21T01:09:53.000Z,20.75
2022-08-21T01:10:53.000Z,20.78
2022-08-21T01:11:53.000Z,20.75
2022-08-21T01:12:56.000Z,20.76
2022-08-21T01:13:54.000Z,20.72
2022-08-21T01:14:53.000Z,20.72
2022-08-21T01:15:56.000Z,20.68
2022-08-21T01:16:55.000Z,20.70
2022-08-21T01:17:53.000Z,20.65
2022-08-21T01:18:53.000Z,20.62
2022-08-21T01:19:57.000Z,20.57
2022-08-21T01:21:03.000Z,20.58
2022-08-21T01:21:53.000Z,20.52
2022-08-21T01:22:53.000Z,20.50
2022-08-21T01:23:54.000Z,20.47
2022-08-21T01:24:53.000Z,20.34
2022-08-21T01:25:53.000Z,20.23
2022-08-21T01:26:53.000Z,20.26
2022-08-21T01:27:53.000Z,20.26
2022-08-21T01:29:00.000Z,20.28
2022-08-21T01:29:57.000Z,20.27
2022-08-21T01:30:53.000Z,20.26
2022-08-21T01:31:53.000Z,20.26
2022-08-21T01:32:54.000Z,20.23
2022-08-21T01:33:55.000Z,20.21
2022-08-21T01:34:53.000Z,20.20
2022-08-21T01:35:53.000Z,20.16
2022-08-21T01:36:53.000Z,20.16
2022-08-21T01:37:52.000Z,20.15
2022-08-21T01:38:53.000Z,20.10
2022-08-21T01:39:53.000Z,20.12
2022-08-21T01:40:52.000Z,20.09
2022-08-21T01:41:52.000Z,20.07
2022-08-21T01:42:53.000Z,20.02
2022-08-21T01:43:53.000Z,19.99
2022-08-21T01:44:52.000Z,20.00
2022-08-21T01:45:52.000Z,19.93
2022-08-21T01:46:53.000Z,19.93
2022-08-21T01:47:52.000Z,19.93
2022-08-21T01:48:52.000Z,19.89
2022-08-21T01:49:53.000Z,19.85
2022-08-21T01:50:52.000Z,19.80
2022-08-21T01:51:53.000Z,19.80
2022-08-21T01:52:52.000Z,19.83
2022-08-21T01:53:52.000Z,19.78
2022-08-21T01:54:52.000Z,19.75
2022-08-21T01:55:52.000Z,19.73
2022-08-21T01:56:53.000Z,19.75
2022-08-21T01:57:53.000Z,19.69
2022-08-21T01:58:52.000Z,19.69
2022-08-21T01:59:53.000Z,19.66
2022-08-21T02:00:53.000Z,19.68
2022-08-21T02:01:55.000Z,19.68
2022-08-21T02:02:53.000Z,19.65
2022-08-21T02:03:52.000Z,19.64
2022-08-21T02:04:53.000Z,19.62
2022-08-21T02:05:53.000Z,19.62
2022-08-21T02:06:52.000Z,19.61
2022-08-21T02:07:55.000Z,19.62
2022-08-21T02:08:52.000Z,19.64
2022-08-21T02:09:52.000Z,19.62
2022-08-21T02:10:52.000Z,19.61
2022-08-21T02:11:53.000Z,19.57
2022-08-21T02:12:53.000Z,19.55
2022-08-21T02:13:52.000Z,19.54
2022-08-21T02:14:52.000Z,19.49
2022-08-21T02:15:52.000Z,19.51
2022-08-21T02:16:52.000Z,19.52
2022-08-21T02:17:55.000Z,19.51
2022-08-21T02:18:52.000Z,19.49
2022-08-21T02:19:52.000Z,19.49
2022-08-21T02:20:52.000Z,19.48
2022-08-21T02:21:52.000Z,19.47
2022-08-21T02:22:53.000Z,19.45
2022-08-21T02:23:52.000Z,19.44
2022-08-21T02:24:52.000Z,19.44
2022-08-21T02:26:00.000Z,19.44
2022-08-21T02:26:52.000Z,19.44
2022-08-21T02:27:53.000Z,19.41
2022-08-21T02:28:52.000Z,19.41
2022-08-21T02:29:55.000Z,19.38
2022-08-21T02:30:54.000Z,19.38
2022-08-21T02:31:52.000Z,19.41
2022-08-21T02:32:52.000Z,19.38
2022-08-21T02:33:52.000Z,19.35
2022-08-21T02:34:53.000Z,19.37
2022-08-21T02:35:54.000Z,19.37
2022-08-21T02:36:52.000Z,19.37
2022-08-21T02:37:58.000Z,19.35
2022-08-21T02:38:53.000Z,19.31
2022-08-21T02:39:53.000Z,19.33
2022-08-21T02:40:54.000Z,19.28
2022-08-21T02:41:53.000Z,19.24
2022-08-21T02:42:53.000Z,19.26
2022-08-21T02:43:53.000Z,19.24
2022-08-21T02:44:53.000Z,19.27
2022-08-21T02:45:54.000Z,19.24
2022-08-21T02:46:53.000Z,19.21
2022-08-21T02:48:02.000Z,19.13
2022-08-21T02:48:53.000Z,19.13
2022-08-21T02:49:53.000Z,19.13
2022-08-21T02:50:59.000Z,19.14
2022-08-21T02:51:53.000Z,19.13
2022-08-21T02:52:54.000Z,19.13
2022-08-21T02:53:53.000Z,19.13
2022-08-21T02:54:53.000Z,19.13
2022-08-21T02:55:53.000Z,19.10
2022-08-21T02:56:53.000Z,19.10
2022-08-21T02:57:55.000Z,19.10
2022-08-21T02:58:53.000Z,19.10
2022-08-21T02:59:53.000Z,19.11
2022-08-21T03:00:53.000Z,19.10
2022-08-21T03:01:53.000Z,19.08
2022-08-21T03:02:53.000Z,19.08
2022-08-21T03:03:53.000Z,19.06
2022-08-21T03:04:53.000Z,19.03
2022-08-21T03:05:53.000Z,19.06
2022-08-21T03:06:53.000Z,19.06
2022-08-21T03:07:53.000Z,19.06
2022-08-21T03:08:53.000Z,19.07
2022-08-21T03:09:53.000Z,19.01
2022-08-21T03:10:53.000Z,19.01
2022-08-21T03:11:53.000Z,18.98
2022-08-21T03:12:54.000Z,18.96
2022-08-21T03:13:53.000Z,18.90
2022-08-21T03:14:53.000Z,18.90
2022-08-21T03:15:53.000Z,18.87
2022-08-21T03:16:52.000Z,18.83
2022-08-21T03:17:54.000Z,18.84
2022-08-21T03:18:52.000Z,18.82
2022-08-21T03:19:52.000Z,18.83
2022-08-21T03:20:53.000Z,18.82
2022-08-21T03:21:52.000Z,18.79
2022-08-21T03:22:54.000Z,18.79
2022-08-21T03:23:53.000Z,18.79
2022-08-21T03:24:53.000Z,18.79
2022-08-21T03:25:53.000Z,18.73
2022-08-21T03:26:52.000Z,18.73
2022-08-21T03:27:53.000Z,18.73
2022-08-21T03:28:53.000Z,18.68
2022-08-21T03:29:54.000Z,18.63
2022-08-21T03:30:53.000Z,18.65
2022-08-21T03:31:55.000Z,18.63
2022-08-21T03:32:53.000Z,18.65
2022-08-21T03:33:54.000Z,18.65
2022-08-21T03:34:52.000Z,18.65
2022-08-21T03:35:58.000Z,18.66
2022-08-21T03:36:52.000Z,18.68
2022-08-21T03:37:54.000Z,18.65
2022-08-21T03:38:53.000Z,18.62
2022-08-21T03:39:53.000Z,18.62
2022-08-21T03:40:52.000Z,18.63
2022-08-21T03:41:53.000Z,18.63
2022-08-21T03:42:52.000Z,18.60
2022-08-21T03:43:53.000Z,18.58
2022-08-21T03:44:52.000Z,18.55
2022-08-21T03:45:53.000Z,18.52
2022-08-21T03:46:53.000Z,18.48
2022-08-21T03:47:58.000Z,18.46
2022-08-21T03:48:52.000Z,18.48
2022-08-21T03:49:53.000Z,18.48
2022-08-21T03:50:52.000Z,18.45
2022-08-21T03:51:53.000Z,18.42
2022-08-21T03:52:53.000Z,18.41
2022-08-21T03:53:54.000Z,18.39
2022-08-21T03:54:52.000Z,18.38
2022-08-21T03:55:53.000Z,18.36
2022-08-21T03:56:52.000Z,18.39
2022-08-21T03:57:52.000Z,18.41
2022-08-21T03:58:52.000Z,18.39
2022-08-21T03:59:53.000Z,18.39
2022-08-21T04:00:58.000Z,18.39
2022-08-21T04:01:54.000Z,18.41
2022-08-21T04:02:52.000Z,18.38
2022-08-21T04:03:52.000Z,18.38
2022-08-21T04:04:52.000Z,18.36
2022-08-21T04:05:52.000Z,18.35
2022-08-21T04:06:54.000Z,18.32
2022-08-21T04:07:54.000Z,18.31
2022-08-21T04:08:52.000Z,18.31
2022-08-21T04:09:52.000Z,18.25
2022-08-21T04:10:56.000Z,18.25
2022-08-21T04:11:53.000Z,18.24
2022-08-21T04:12:53.000Z,18.24
2022-08-21T04:13:53.000Z,18.25
2022-08-21T04:14:53.000Z,18.22
2022-08-21T04:15:54.000Z,18.17
2022-08-21T04:16:53.000Z,18.14
2022-08-21T04:17:53.000Z,18.14
2022-08-21T04:18:53.000Z,18.15
2022-08-21T04:19:52.000Z,18.12
2022-08-21T04:20:55.000Z,18.15
2022-08-21T04:21:53.000Z,18.14
2022-08-21T04:22:53.000Z,18.12
2022-08-21T04:23:56.000Z,18.14
2022-08-21T04:24:53.000Z,18.14
2022-08-21T04:25:55.000Z,18.15
2022-08-21T04:26:53.000Z,18.15
2022-08-21T04:27:53.000Z,18.18
2022-08-21T04:28:53.000Z,18.17
2022-08-21T04:29:52.000Z,18.15
2022-08-21T04:30:53.000Z,18.15
2022-08-21T04:31:53.000Z,18.09
2022-08-21T04:32:53.000Z,18.07
2022-08-21T04:33:53.000Z,18.04
2022-08-21T04:35:03.000Z,18.01
2022-08-21T04:35:53.000Z,17.98
2022-08-21T04:36:52.000Z,17.97
2022-08-21T04:37:53.000Z,17.96
2022-08-21T04:38:53.000Z,17.93
2022-08-21T04:39:53.000Z,17.91
2022-08-21T04:40:52.000Z,17.93
2022-08-21T04:41:52.000Z,17.93
2022-08-21T04:42:56.000Z,17.87
2022-08-21T04:43:54.000Z,17.86
2022-08-21T04:44:54.000Z,17.80
2022-08-21T04:45:52.000Z,17.81
2022-08-21T04:46:52.000Z,17.83
2022-08-21T04:47:55.000Z,17.84
2022-08-21T04:48:52.000Z,17.86
2022-08-21T04:49:52.000Z,17.83
2022-08-21T04:50:58.000Z,17.80
2022-08-21T04:51:52.000Z,17.79
2022-08-21T04:52:53.000Z,17.79
2022-08-21T04:53:59.000Z,17.79
2022-08-21T04:54:52.000Z,17.77
2022-08-21T04:55:54.000Z,17.80
2022-08-21T04:57:00.000Z,17.83
2022-08-21T04:57:54.000Z,17.86
2022-08-21T04:58:55.000Z,17.84
2022-08-21T04:59:52.000Z,17.83
2022-08-21T05:00:56.000Z,17.81
2022-08-21T05:01:54.000Z,17.83
2022-08-21T05:02:58.000Z,17.83
2022-08-21T05:03:56.000Z,17.83
2022-08-21T05:04:54.000Z,17.79
2022-08-21T05:05:53.000Z,17.79
2022-08-21T05:06:56.000Z,17.81
2022-08-21T05:07:52.000Z,17.83
2022-08-21T05:08:55.000Z,17.86
2022-08-21T05:09:53.000Z,17.88
2022-08-21T05:10:54.000Z,17.93
2022-08-21T05:11:53.000Z,17.91
2022-08-21T05:12:54.000Z,17.90
2022-08-21T05:13:53.000Z,17.91
2022-08-21T05:14:53.000Z,17.90
2022-08-21T05:15:53.000Z,17.94
2022-08-21T05:16:53.000Z,17.94
2022-08-21T05:17:53.000Z,17.96
2022-08-21T05:18:53.000Z,17.97
2022-08-21T05:19:53.000Z,17.98
2022-08-21T05:20:53.000Z,17.97
2022-08-21T05:21:53.000Z,17.97
2022-08-21T05:22:53.000Z,18.01
2022-08-21T05:23:53.000Z,18.03
2022-08-21T05:24:53.000Z,18.03
2022-08-21T05:25:53.000Z,18.05
2022-08-21T05:26:53.000Z,18.05
2022-08-21T05:27:53.000Z,18.09
2022-08-21T05:28:53.000Z,18.07
2022-08-21T05:29:53.000Z,18.07
2022-08-21T05:30:53.000Z,18.07
2022-08-21T05:31:53.000Z,18.08
2022-08-21T05:32:57.000Z,18.09
2022-08-21T05:33:53.000Z,18.14
2022-08-21T05:34:54.000Z,18.15
2022-08-21T05:35:54.000Z,18.15
2022-08-21T05:36:53.000Z,18.12
2022-08-21T05:37:53.000Z,18.15
2022-08-21T05:38:53.000Z,18.14
2022-08-21T05:39:53.000Z,18.19
2022-08-21T05:40:54.000Z,18.19
2022-08-21T05:41:53.000Z,18.25
2022-08-21T05:42:54.000Z,18.25
2022-08-21T05:43:53.000Z,18.27
2022-08-21T05:44:53.000Z,18.27
2022-08-21T05:45:53.000Z,18.31
2022-08-21T05:46:53.000Z,18.32
2022-08-21T05:47:53.000Z,18.31
2022-08-21T05:48:53.000Z,18.35
2022-08-21T05:49:53.000Z,18.38
2022-08-21T05:50:53.000Z,18.41
2022-08-21T05:51:52.000Z,18.42
2022-08-21T05:52:53.000Z,18.48
2022-08-21T05:53:53.000Z,18.45
2022-08-21T05:54:55.000Z,18.48
2022-08-21T05:55:53.000Z,18.51
2022-08-21T05:56:53.000Z,18.52
2022-08-21T05:57:52.000Z,18.52
2022-08-21T05:58:53.000Z,18.54
2022-08-21T05:59:53.000Z,18.56
2022-08-21T06:00:53.000Z,18.56
2022-08-21T06:01:53.000Z,18.56
2022-08-21T06:02:53.000Z,18.60
2022-08-21T06:03:52.000Z,18.62
2022-08-21T06:04:56.000Z,18.63
2022-08-21T06:05:54.000Z,18.65
2022-08-21T06:06:53.000Z,18.65
2022-08-21T06:07:53.000Z,18.65
2022-08-21T06:08:53.000Z,18.65
2022-08-21T06:09:53.000Z,18.68
2022-08-21T06:10:54.000Z,18.69
2022-08-21T06:11:52.000Z,18.72
2022-08-21T06:12:53.000Z,18.72
2022-08-21T06:13:52.000Z,18.65
2022-08-21T06:14:52.000Z,18.65
2022-08-21T06:16:02.000Z,18.65
2022-08-21T06:16:52.000Z,18.68
2022-08-21T06:17:53.000Z,18.68
2022-08-21T06:18:52.000Z,18.69
2022-08-21T06:19:52.000Z,18.73
2022-08-21T06:20:52.000Z,18.75
2022-08-21T06:21:52.000Z,18.75
2022-08-21T06:22:52.000Z,18.72
2022-08-21T06:23:52.000Z,18.70
2022-08-21T06:24:52.000Z,18.70
2022-08-21T06:25:52.000Z,18.70
2022-08-21T06:26:52.000Z,18.73
2022-08-21T06:27:52.000Z,18.72
2022-08-21T06:28:53.000Z,18.77
2022-08-21T06:29:52.000Z,18.79
2022-08-21T06:30:52.000Z,18.77
2022-08-21T06:31:52.000Z,18.73
2022-08-21T06:32:52.000Z,18.72
2022-08-21T06:33:52.000Z,18.77
2022-08-21T06:34:52.000Z,18.82
2022-08-21T06:35:52.000Z,18.83
2022-08-21T06:36:52.000Z,18.86
2022-08-21T06:37:52.000Z,18.89
2022-08-21T06:38:52.000Z,18.90
2022-08-21T06:39:52.000Z,18.87
2022-08-21T06:40:52.000Z,18.58
2022-08-21T06:41:52.000Z,18.62
2022-08-21T06:42:53.000Z,18.60
2022-08-21T06:43:54.000Z,18.69
2022-08-21T06:44:53.000Z,18.76
2022-08-21T06:45:53.000Z,18.79
2022-08-21T06:46:53.000Z,18.79
2022-08-21T06:47:53.000Z,18.84
2022-08-21T06:48:53.000Z,18.84
2022-08-21T06:49:53.000Z,18.84
2022-08-21T06:50:53.000Z,18.90
2022-08-21T06:51:53.000Z,18.90
2022-08-21T06:53:03.000Z,18.79
2022-08-21T06:53:53.000Z,18.77
2022-08-21T06:54:53.000Z,18.83
2022-08-21T06:55:53.000Z,18.87
2022-08-21T06:56:53.000Z,18.94
2022-08-21T06:57:53.000Z,19.03
2022-08-21T06:58:53.000Z,19.07
2022-08-21T06:59:53.000Z,19.10
2022-08-21T07:00:53.000Z,19.11
2022-08-21T07:01:53.000Z,19.10
2022-08-21T07:02:53.000Z,19.13
2022-08-21T07:03:53.000Z,19.24
2022-08-21T07:04:53.000Z,19.28
2022-08-21T07:05:53.000Z,19.34
2022-08-21T07:06:53.000Z,19.35
2022-08-21T07:07:53.000Z,19.35
2022-08-21T07:08:53.000Z,19.39
2022-08-21T07:09:53.000Z,19.45
2022-08-21T07:10:56.000Z,19.49
2022-08-21T07:11:55.000Z,19.55
2022-08-21T07:12:54.000Z,19.61
2022-08-21T07:13:54.000Z,19.65
2022-08-21T07:14:52.000Z,19.69
2022-08-21T07:15:52.000Z,19.72
2022-08-21T07:16:52.000Z,19.68
2022-08-21T07:17:52.000Z,19.76
2022-08-21T07:18:52.000Z,19.75
2022-08-21T07:19:52.000Z,19.76
2022-08-21T07:20:54.000Z,19.73
2022-08-21T07:21:59.000Z,19.75
2022-08-21T07:22:53.000Z,19.66
2022-08-21T07:23:53.000Z,19.64
2022-08-21T07:24:54.000Z,19.72
2022-08-21T07:25:53.000Z,19.79
2022-08-21T07:26:52.000Z,19.85
2022-08-21T07:27:53.000Z,19.90
2022-08-21T07:28:53.000Z,19.95
2022-08-21T07:29:52.000Z,20.05
2022-08-21T07:30:55.000Z,20.07
2022-08-21T07:31:52.000Z,20.05
2022-08-21T07:32:53.000Z,20.02
2022-08-21T07:33:53.000Z,20.10
2022-08-21T07:34:52.000Z,20.12
2022-08-21T07:35:53.000Z,20.16
2022-08-21T07:36:52.000Z,20.21
2022-08-21T07:37:52.000Z,20.27
2022-08-21T07:38:52.000Z,20.30
2022-08-21T07:39:52.000Z,20.33
2022-08-21T07:40:55.000Z,20.37
2022-08-21T07:41:52.000Z,20.41
2022-08-21T07:42:53.000Z,20.41
2022-08-21T07:43:52.000Z,20.43
2022-08-21T07:44:54.000Z,20.47
2022-08-21T07:45:55.000Z,20.51
2022-08-21T07:46:52.000Z,20.54
2022-08-21T07:47:52.000Z,20.52
2022-08-21T07:48:53.000Z,20.55
2022-08-21T07:49:52.000Z,20.61
2022-08-21T07:50:52.000Z,20.65
2022-08-21T07:51:53.000Z,20.70
2022-08-21T07:52:52.000Z,20.72
2022-08-21T07:53:54.000Z,20.75
2022-08-21T07:54:52.000Z,20.79
2022-08-21T07:55:56.000Z,20.88
2022-08-21T07:56:52.000Z,20.92
2022-08-21T07:57:52.000Z,20.94
2022-08-21T07:58:52.000Z,20.96
2022-08-21T07:59:52.000Z,20.96
2022-08-21T08:00:52.000Z,20.85
2022-08-21T08:01:52.000Z,20.86
2022-08-21T08:02:54.000Z,20.95
2022-08-21T08:03:52.000Z,20.95
2022-08-21T08:04:52.000Z,21.01
2022-08-21T08:05:52.000Z,21.07
2022-08-21T08:06:52.000Z,21.16
2022-08-21T08:07:53.000Z,21.23
2022-08-21T08:08:52.000Z,21.33
2022-08-21T08:09:52.000Z,21.40
2022-08-21T08:10:55.000Z,21.49
2022-08-21T08:11:52.000Z,21.53
2022-08-21T08:12:54.000Z,21.57
2022-08-21T08:13:52.000Z,21.57
2022-08-21T08:14:52.000Z,21.60
2022-08-21T08:15:52.000Z,21.63
2022-08-21T08:16:52.000Z,21.70
2022-08-21T08:17:55.000Z,21.77
2022-08-21T08:18:54.000Z,21.78
2022-08-21T08:19:52.000Z,21.82
2022-08-21T08:20:52.000Z,21.91
2022-08-21T08:21:52.000Z,21.95
2022-08-21T08:22:53.000Z,22.01
2022-08-21T08:23:52.000Z,22.04
2022-08-21T08:24:53.000Z,22.09
2022-08-21T08:25:52.000Z,22.12
2022-08-21T08:26:53.000Z,22.09
2022-08-21T08:27:52.000Z,22.12
2022-08-21T08:28:52.000Z,22.16
2022-08-21T08:29:52.000Z,22.12
2022-08-21T08:30:52.000Z,22.12
2022-08-21T08:31:52.000Z,22.08
2022-08-21T08:32:52.000Z,22.08
2022-08-21T08:33:52.000Z,22.08
2022-08-21T08:34:52.000Z,22.09
2022-08-21T08:35:53.000Z,22.15
2022-08-21T08:36:52.000Z,22.21
2022-08-21T08:37:52.000Z,22.16
2022-08-21T08:38:52.000Z,22.21
2022-08-21T08:39:53.000Z,22.31
2022-08-21T08:41:08.000Z,22.36
2022-08-21T08:42:01.000Z,22.40
2022-08-21T08:42:52.000Z,22.45
2022-08-21T08:43:58.000Z,22.47
2022-08-21T08:44:59.000Z,22.43
2022-08-21T08:45:56.000Z,22.51
2022-08-21T08:46:53.000Z,22.49
2022-08-21T08:48:06.000Z,22.56
2022-08-21T08:48:57.000Z,22.62
2022-08-21T08:50:03.000Z,22.62
2022-08-21T08:50:55.000Z,22.52
2022-08-21T08:51:59.000Z,22.55
2022-08-21T08:53:01.000Z,22.59
2022-08-21T08:53:59.000Z,22.64
2022-08-21T08:55:15.000Z,22.73
2022-08-21T08:55:52.000Z,22.82
2022-08-21T08:56:55.000Z,22.89
2022-08-21T08:57:54.000Z,22.94
2022-08-21T08:58:58.000Z,22.98
2022-08-21T08:59:58.000Z,22.95
2022-08-21T09:00:53.000Z,23.01
2022-08-21T09:01:52.000Z,23.05
2022-08-21T09:02:54.000Z,23.07
2022-08-21T09:03:52.000Z,23.11
2022-08-21T09:04:53.000Z,23.11
2022-08-21T09:06:07.000Z,23.14
2022-08-21T09:07:15.000Z,23.22
2022-08-21T09:08:11.000Z,23.27
2022-08-21T09:09:25.000Z,23.30
2022-08-21T09:10:25.000Z,23.28
2022-08-21T09:11:00.000Z,23.37
2022-08-21T09:12:02.000Z,23.34
2022-08-21T09:13:17.000Z,23.41
2022-08-21T09:14:03.000Z,23.48
2022-08-21T09:15:03.000Z,23.52
2022-08-21T09:16:03.000Z,23.48
2022-08-21T09:17:26.000Z,23.48
2022-08-21T09:18:07.000Z,23.41
2022-08-21T09:19:03.000Z,23.44
2022-08-21T09:20:15.000Z,23.48
2022-08-21T09:21:16.000Z,23.55
2022-08-21T09:22:02.000Z,23.58
2022-08-21T09:23:03.000Z,23.62
2022-08-21T09:24:13.000Z,23.82
2022-08-21T09:25:16.000Z,23.78
2022-08-21T09:26:03.000Z,23.86
2022-08-21T09:27:02.000Z,23.86
2022-08-21T09:27:53.000Z,23.93
2022-08-21T09:28:57.000Z,23.96
2022-08-21T09:29:54.000Z,24.03
2022-08-21T09:30:55.000Z,24.03
2022-08-21T09:31:53.000Z,24.06
2022-08-21T09:32:53.000Z,24.10
2022-08-21T09:34:03.000Z,24.17
2022-08-21T09:35:03.000Z,24.23
2022-08-21T09:35:55.000Z,24.23
2022-08-21T09:36:53.000Z,24.21
2022-08-21T09:38:02.000Z,24.23
2022-08-21T09:38:54.000Z,24.30
2022-08-21T09:39:53.000Z,24.31
2022-08-21T09:41:02.000Z,24.30
2022-08-21T09:42:00.000Z,24.31
2022-08-21T09:42:56.000Z,24.40
2022-08-21T09:43:53.000Z,24.44
2022-08-21T09:45:03.000Z,24.51
2022-08-21T09:46:06.000Z,24.51
2022-08-21T09:46:52.000Z,24.47
2022-08-21T09:47:53.000Z,24.54
2022-08-21T09:48:55.000Z,24.57
2022-08-21T09:49:53.000Z,24.58
2022-08-21T09:51:04.000Z,24.62
2022-08-21T09:51:54.000Z,24.67
2022-08-21T09:53:00.000Z,24.71
2022-08-21T09:54:14.000Z,24.74
2022-08-21T09:54:55.000Z,24.75
2022-08-21T09:56:01.000Z,24.77
2022-08-21T09:57:10.000Z,24.81
2022-08-21T09:57:52.000Z,24.86
2022-08-21T09:58:52.000Z,24.95
2022-08-21T09:59:53.000Z,24.99
2022-08-21T10:00:58.000Z,25.01
2022-08-21T10:01:53.000Z,25.06
2022-08-21T10:02:53.000Z,25.10
2022-08-21T10:04:02.000Z,25.19
2022-08-21T10:04:59.000Z,25.20
2022-08-21T10:06:03.000Z,25.23
2022-08-21T10:06:52.000Z,25.29
2022-08-21T10:07:52.000Z,25.34
2022-08-21T10:09:02.000Z,25.36
2022-08-21T10:10:08.000Z,25.41
2022-08-21T10:11:03.000Z,25.40
2022-08-21T10:12:02.000Z,25.40
2022-08-21T10:13:03.000Z,25.47
2022-08-21T10:14:16.000Z,25.46
2022-08-21T10:15:05.000Z,25.51
2022-08-21T10:16:16.000Z,25.53
2022-08-21T10:17:05.000Z,25.57
2022-08-21T10:18:09.000Z,25.57
2022-08-21T10:19:06.000Z,25.57
2022-08-21T10:20:03.000Z,25.63
2022-08-21T10:21:13.000Z,25.68
2022-08-21T10:22:03.000Z,25.78
2022-08-21T10:23:13.000Z,25.84
2022-08-21T10:24:04.000Z,25.85
2022-08-21T10:25:03.000Z,25.84
2022-08-21T10:26:05.000Z,25.85
2022-08-21T10:27:03.000Z,25.81
2022-08-21T10:28:16.000Z,25.87
2022-08-21T10:29:06.000Z,25.89
2022-08-21T10:30:13.000Z,25.91
2022-08-21T10:31:12.000Z,25.77
2022-08-21T10:32:16.000Z,25.85
2022-08-21T10:33:07.000Z,25.77
2022-08-21T10:34:13.000Z,25.78
2022-08-21T10:35:10.000Z,25.77
2022-08-21T10:36:12.000Z,25.80
2022-08-21T10:37:10.000Z,25.77
2022-08-21T10:38:03.000Z,25.73
2022-08-21T10:39:13.000Z,25.74
2022-08-21T10:40:03.000Z,25.63
2022-08-21T10:41:08.000Z,25.70
2022-08-21T10:42:13.000Z,25.81
2022-08-21T10:43:15.000Z,25.92
2022-08-21T10:44:03.000Z,25.98
2022-08-21T10:45:15.000Z,26.07
2022-08-21T10:46:03.000Z,26.12
2022-08-21T10:47:03.000Z,26.17
2022-08-21T10:48:05.000Z,26.12
2022-08-21T10:48:58.000Z,26.07
2022-08-21T10:50:03.000Z,26.11
2022-08-21T10:51:03.000Z,26.12
2022-08-21T10:52:15.000Z,26.19
2022-08-21T10:53:04.000Z,26.15
2022-08-21T10:54:12.000Z,26.19
2022-08-21T10:55:02.000Z,26.27
2022-08-21T10:56:05.000Z,26.34
2022-08-21T10:57:01.000Z,26.36
2022-08-21T10:58:00.000Z,26.40
2022-08-21T10:59:25.000Z,26.46
2022-08-21T10:59:59.000Z,26.52
2022-08-21T11:01:02.000Z,26.57
2022-08-21T11:02:02.000Z,26.59
2022-08-21T11:03:13.000Z,26.42
2022-08-21T11:04:07.000Z,26.31
2022-08-21T11:05:02.000Z,26.34
2022-08-21T11:06:05.000Z,26.24
2022-08-21T11:07:03.000Z,26.31
2022-08-21T11:08:03.000Z,26.42
2022-08-21T11:08:58.000Z,26.45
2022-08-21T11:09:57.000Z,26.48
2022-08-21T11:11:05.000Z,26.46
2022-08-21T11:12:03.000Z,26.56
2022-08-21T11:13:01.000Z,26.57
2022-08-21T11:14:02.000Z,26.60
2022-08-21T11:15:00.000Z,26.64
2022-08-21T11:16:05.000Z,26.70
2022-08-21T11:17:12.000Z,26.67
2022-08-21T11:18:16.000Z,26.63
2022-08-21T11:19:02.000Z,26.59
2022-08-21T11:20:02.000Z,26.60
2022-08-21T11:21:03.000Z,26.50
2022-08-21T11:22:00.000Z,26.59
2022-08-21T11:23:04.000Z,26.59
2022-08-21T11:24:02.000Z,26.69
2022-08-21T11:25:01.000Z,26.70
2022-08-21T11:26:00.000Z,26.77
2022-08-21T11:27:04.000Z,26.83
2022-08-21T11:28:10.000Z,26.87
2022-08-21T11:29:05.000Z,26.91
2022-08-21T11:29:56.000Z,26.98
2022-08-21T11:31:06.000Z,27.04
2022-08-21T11:32:02.000Z,27.08
2022-08-21T11:33:03.000Z,27.11
2022-08-21T11:34:16.000Z,27.14
2022-08-21T11:35:07.000Z,27.14
2022-08-21T11:36:02.000Z,27.20
2022-08-21T11:37:17.000Z,27.15
2022-08-21T11:38:03.000Z,26.80
2022-08-21T11:39:01.000Z,26.82
2022-08-21T11:40:03.000Z,26.89
2022-08-21T11:41:15.000Z,26.90
2022-08-21T11:42:15.000Z,26.93
2022-08-21T11:43:15.000Z,26.98
2022-08-21T11:44:05.000Z,27.03
2022-08-21T11:45:10.000Z,27.07
2022-08-21T11:46:09.000Z,27.14
2022-08-21T11:47:04.000Z,27.11
2022-08-21T11:48:07.000Z,27.04
2022-08-21T11:49:02.000Z,27.06
2022-08-21T11:50:05.000Z,27.01
2022-08-21T11:50:54.000Z,26.79
2022-08-21T11:52:05.000Z,26.87
2022-08-21T11:53:12.000Z,27.00
2022-08-21T11:54:13.000Z,27.04
2022-08-21T11:55:03.000Z,27.06
2022-08-21T11:56:04.000Z,27.13
2022-08-21T11:57:02.000Z,27.22
2022-08-21T11:58:03.000Z,27.29
2022-08-21T11:58:56.000Z,27.25
2022-08-21T11:59:59.000Z,27.32
2022-08-21T12:01:05.000Z,27.28
2022-08-21T12:01:53.000Z,27.27
2022-08-21T12:02:55.000Z,27.21
2022-08-21T12:04:00.000Z,27.18
2022-08-21T12:04:59.000Z,27.18
2022-08-21T12:05:59.000Z,26.91
2022-08-21T12:06:52.000Z,27.00
2022-08-21T12:08:02.000Z,27.10
2022-08-21T12:08:59.000Z,27.03
2022-08-21T12:09:55.000Z,27.18
2022-08-21T12:11:02.000Z,27.04
2022-08-21T12:12:09.000Z,27.06
2022-08-21T12:12:52.000Z,27.22
2022-08-21T12:13:59.000Z,27.24
2022-08-21T12:15:08.000Z,27.31
2022-08-21T12:16:03.000Z,27.34
2022-08-21T12:17:04.000Z,27.44
2022-08-21T12:18:00.000Z,27.51
2022-08-21T12:19:14.000Z,27.48
2022-08-21T12:19:58.000Z,27.46
2022-08-21T12:21:15.000Z,27.56
2022-08-21T12:22:02.000Z,27.38
2022-08-21T12:23:03.000Z,27.48
2022-08-21T12:24:02.000Z,27.54
2022-08-21T12:25:06.000Z,27.59
2022-08-21T12:26:03.000Z,27.61
2022-08-21T12:27:12.000Z,27.69
2022-08-21T12:28:05.000Z,27.68
2022-08-21T12:29:10.000Z,27.48
2022-08-21T12:29:58.000Z,27.54
2022-08-21T12:30:53.000Z,27.64
2022-08-21T12:32:18.000Z,27.72
2022-08-21T12:32:59.000Z,27.79
2022-08-21T12:34:03.000Z,27.82
2022-08-21T12:35:05.000Z,27.89
2022-08-21T12:36:04.000Z,27.95
2022-08-21T12:36:59.000Z,28.02
2022-08-21T12:38:02.000Z,28.03
2022-08-21T12:39:12.000Z,28.06
2022-08-21T12:39:57.000Z,28.12
2022-08-21T12:41:03.000Z,28.19
2022-08-21T12:42:25.000Z,28.22
2022-08-21T12:42:56.000Z,28.22
2022-08-21T12:44:01.000Z,28.30
2022-08-21T12:45:01.000Z,28.34
2022-08-21T12:45:52.000Z,28.45
2022-08-21T12:46:59.000Z,28.50
2022-08-21T12:48:01.000Z,28.51
2022-08-21T12:48:59.000Z,28.52
2022-08-21T12:50:01.000Z,28.52
2022-08-21T12:50:55.000Z,28.57
2022-08-21T12:52:00.000Z,28.60
2022-08-21T12:53:02.000Z,28.61